sensor_id;sensor_type;location;lat;lon;timestamp;P1;durP1;ratioP1;P2;durP2;ratioP2
62687;SDS011;48752;51.056;17.056;2023-06-14T00:01:22;11.05;;;6.28;;
62687;SDS011;48752;51.056;17.056;2023-06-14T00:03:48;7.97;;;6.03;;
62687;SDS011;48752;51.056;17.056;2023-06-14T00:06:13;8.50;;;6.85;;
62687;SDS011;48752;51.056;17.056;2023-06-14T00:08:41;9.25;;;5.85;;
62687;SDS011;48752;51.056;17.056;2023-06-14T00:11:06;8.98;;;6.53;;
62687;SDS011;48752;51.056;17.056;2023-06-14T00:13:35;8.23;;;5.63;;
62687;SDS011;48752;51.056;17.056;2023-06-14T00:16:01;9.52;;;6.55;;
62687;SDS011;48752;51.056;17.056;2023-06-14T00:18:26;7.85;;;6.88;;
62687;SDS011;48752;51.056;17.056;2023-06-14T00:20:55;10.35;;;5.70;;
62687;SDS011;48752;51.056;17.056;2023-06-14T00:23:21;9.43;;;6.93;;
62687;SDS011;48752;51.056;17.056;2023-06-14T00:25:47;10.43;;;6.88;;
62687;SDS011;48752;51.056;17.056;2023-06-14T00:28:13;9.20;;;6.00;;
62687;SDS011;48752;51.056;17.056;2023-06-14T00:30:39;10.50;;;6.47;;
62687;SDS011;48752;51.056;17.056;2023-06-14T00:33:04;9.23;;;6.15;;
62687;SDS011;48752;51.056;17.056;2023-06-14T00:35:29;11.10;;;5.85;;
62687;SDS011;48752;51.056;17.056;2023-06-14T00:37:55;8.18;;;5.82;;
62687;SDS011;48752;51.056;17.056;2023-06-14T00:40:21;10.30;;;6.43;;
62687;SDS011;48752;51.056;17.056;2023-06-14T00:42:47;10.32;;;6.18;;
62687;SDS011;48752;51.056;17.056;2023-06-14T00:45:14;8.73;;;6.43;;
62687;SDS011;48752;51.056;17.056;2023-06-14T00:47:41;9.40;;;6.40;;
62687;SDS011;48752;51.056;17.056;2023-06-14T00:50:07;9.07;;;6.32;;
62687;SDS011;48752;51.056;17.056;2023-06-14T00:52:35;12.88;;;7.15;;
62687;SDS011;48752;51.056;17.056;2023-06-14T00:55:01;11.82;;;6.82;;
62687;SDS011;48752;51.056;17.056;2023-06-14T00:57:28;7.45;;;5.65;;
62687;SDS011;48752;51.056;17.056;2023-06-14T01:00:03;11.98;;;6.30;;
62687;SDS011;48752;51.056;17.056;2023-06-14T01:02:29;9.73;;;6.38;;
62687;SDS011;48752;51.056;17.056;2023-06-14T01:04:56;8.80;;;5.55;;
62687;SDS011;48752;51.056;17.056;2023-06-14T01:10:09;10.80;;;6.25;;
62687;SDS011;48752;51.056;17.056;2023-06-14T01:15:12;9.90;;;5.90;;
62687;SDS011;48752;51.056;17.056;2023-06-14T01:17:39;7.43;;;5.70;;
62687;SDS011;48752;51.056;17.056;2023-06-14T01:20:08;8.30;;;6.18;;
62687;SDS011;48752;51.056;17.056;2023-06-14T01:22:42;10.52;;;6.18;;
62687;SDS011;48752;51.056;17.056;2023-06-14T01:25:08;8.82;;;6.30;;
62687;SDS011;48752;51.056;17.056;2023-06-14T01:27:34;9.75;;;7.22;;
62687;SDS011;48752;51.056;17.056;2023-06-14T01:30:00;7.70;;;6.65;;
62687;SDS011;48752;51.056;17.056;2023-06-14T01:32:30;9.43;;;6.55;;
62687;SDS011;48752;51.056;17.056;2023-06-14T01:34:57;9.50;;;6.65;;
62687;SDS011;48752;51.056;17.056;2023-06-14T01:37:26;9.00;;;6.35;;
62687;SDS011;48752;51.056;17.056;2023-06-14T01:39:54;8.50;;;6.95;;
62687;SDS011;48752;51.056;17.056;2023-06-14T01:42:20;10.13;;;6.68;;
62687;SDS011;48752;51.056;17.056;2023-06-14T01:44:46;9.98;;;6.00;;
62687;SDS011;48752;51.056;17.056;2023-06-14T01:49:39;12.43;;;7.00;;
62687;SDS011;48752;51.056;17.056;2023-06-14T01:52:05;9.38;;;6.53;;
62687;SDS011;48752;51.056;17.056;2023-06-14T01:54:31;9.35;;;6.22;;
62687;SDS011;48752;51.056;17.056;2023-06-14T01:57:02;11.40;;;6.78;;
62687;SDS011;48752;51.056;17.056;2023-06-14T01:59:37;10.02;;;6.57;;
62687;SDS011;48752;51.056;17.056;2023-06-14T02:02:02;11.25;;;6.85;;
62687;SDS011;48752;51.056;17.056;2023-06-14T02:04:28;10.48;;;6.70;;
62687;SDS011;48752;51.056;17.056;2023-06-14T02:06:53;12.35;;;7.65;;
62687;SDS011;48752;51.056;17.056;2023-06-14T02:09:18;12.77;;;7.03;;
62687;SDS011;48752;51.056;17.056;2023-06-14T02:11:45;10.63;;;7.20;;
62687;SDS011;48752;51.056;17.056;2023-06-14T02:14:11;10.45;;;6.93;;
62687;SDS011;48752;51.056;17.056;2023-06-14T02:16:37;10.90;;;7.03;;
62687;SDS011;48752;51.056;17.056;2023-06-14T02:19:04;9.50;;;6.97;;
62687;SDS011;48752;51.056;17.056;2023-06-14T02:21:31;9.90;;;6.50;;
62687;SDS011;48752;51.056;17.056;2023-06-14T02:23:56;9.80;;;6.88;;
62687;SDS011;48752;51.056;17.056;2023-06-14T02:26:24;12.95;;;6.72;;
62687;SDS011;48752;51.056;17.056;2023-06-14T02:28:50;8.68;;;6.38;;
62687;SDS011;48752;51.056;17.056;2023-06-14T02:31:17;10.93;;;7.75;;
62687;SDS011;48752;51.056;17.056;2023-06-14T02:33:44;11.02;;;7.20;;
62687;SDS011;48752;51.056;17.056;2023-06-14T02:36:10;12.40;;;7.38;;
62687;SDS011;48752;51.056;17.056;2023-06-14T02:38:35;10.73;;;6.65;;
62687;SDS011;48752;51.056;17.056;2023-06-14T02:41:03;9.82;;;6.82;;
62687;SDS011;48752;51.056;17.056;2023-06-14T02:43:30;9.30;;;6.78;;
62687;SDS011;48752;51.056;17.056;2023-06-14T02:45:56;10.25;;;6.82;;
62687;SDS011;48752;51.056;17.056;2023-06-14T02:48:22;14.13;;;7.65;;
62687;SDS011;48752;51.056;17.056;2023-06-14T02:50:47;9.60;;;6.72;;
62687;SDS011;48752;51.056;17.056;2023-06-14T02:53:13;9.82;;;7.43;;
62687;SDS011;48752;51.056;17.056;2023-06-14T02:55:39;10.98;;;7.28;;
62687;SDS011;48752;51.056;17.056;2023-06-14T02:58:06;10.90;;;7.57;;
62687;SDS011;48752;51.056;17.056;2023-06-14T03:00:32;11.68;;;8.10;;
62687;SDS011;48752;51.056;17.056;2023-06-14T03:02:58;12.38;;;6.72;;
62687;SDS011;48752;51.056;17.056;2023-06-14T03:05:27;12.90;;;7.28;;
62687;SDS011;48752;51.056;17.056;2023-06-14T03:08:01;19.23;;;7.53;;
62687;SDS011;48752;51.056;17.056;2023-06-14T03:10:28;11.60;;;7.20;;
62687;SDS011;48752;51.056;17.056;2023-06-14T03:12:55;11.18;;;6.75;;
62687;SDS011;48752;51.056;17.056;2023-06-14T03:15:21;10.10;;;6.97;;
62687;SDS011;48752;51.056;17.056;2023-06-14T03:17:50;12.75;;;6.95;;
62687;SDS011;48752;51.056;17.056;2023-06-14T03:20:16;11.43;;;7.43;;
62687;SDS011;48752;51.056;17.056;2023-06-14T03:22:45;11.38;;;7.70;;
62687;SDS011;48752;51.056;17.056;2023-06-14T03:25:12;9.63;;;6.85;;
62687;SDS011;48752;51.056;17.056;2023-06-14T03:27:38;9.70;;;7.43;;
62687;SDS011;48752;51.056;17.056;2023-06-14T03:30:03;10.43;;;7.05;;
62687;SDS011;48752;51.056;17.056;2023-06-14T03:32:30;9.63;;;7.40;;
62687;SDS011;48752;51.056;17.056;2023-06-14T03:34:58;10.05;;;6.72;;
62687;SDS011;48752;51.056;17.056;2023-06-14T03:37:24;13.20;;;7.37;;
62687;SDS011;48752;51.056;17.056;2023-06-14T03:39:51;8.75;;;7.10;;
62687;SDS011;48752;51.056;17.056;2023-06-14T03:42:16;8.30;;;7.10;;
62687;SDS011;48752;51.056;17.056;2023-06-14T03:44:44;10.43;;;6.82;;
62687;SDS011;48752;51.056;17.056;2023-06-14T03:47:10;10.82;;;6.82;;
62687;SDS011;48752;51.056;17.056;2023-06-14T03:49:37;10.23;;;7.95;;
62687;SDS011;48752;51.056;17.056;2023-06-14T03:52:11;9.68;;;6.95;;
62687;SDS011;48752;51.056;17.056;2023-06-14T03:54:36;10.27;;;6.95;;
62687;SDS011;48752;51.056;17.056;2023-06-14T03:57:02;9.10;;;7.13;;
62687;SDS011;48752;51.056;17.056;2023-06-14T03:59:28;11.38;;;7.82;;
62687;SDS011;48752;51.056;17.056;2023-06-14T04:01:55;10.10;;;6.63;;
62687;SDS011;48752;51.056;17.056;2023-06-14T04:04:29;15.30;;;7.47;;
62687;SDS011;48752;51.056;17.056;2023-06-14T04:06:58;9.07;;;6.90;;
62687;SDS011;48752;51.056;17.056;2023-06-14T04:09:26;11.30;;;7.13;;
62687;SDS011;48752;51.056;17.056;2023-06-14T04:11:52;7.97;;;6.65;;
62687;SDS011;48752;51.056;17.056;2023-06-14T04:14:19;9.20;;;6.22;;
62687;SDS011;48752;51.056;17.056;2023-06-14T04:16:46;8.88;;;6.80;;
62687;SDS011;48752;51.056;17.056;2023-06-14T04:19:11;10.27;;;6.70;;
62687;SDS011;48752;51.056;17.056;2023-06-14T04:21:38;7.93;;;6.63;;
62687;SDS011;48752;51.056;17.056;2023-06-14T04:24:04;8.98;;;6.80;;
62687;SDS011;48752;51.056;17.056;2023-06-14T04:26:29;8.07;;;6.53;;
62687;SDS011;48752;51.056;17.056;2023-06-14T04:28:59;10.60;;;6.68;;
62687;SDS011;48752;51.056;17.056;2023-06-14T04:31:27;10.55;;;7.13;;
62687;SDS011;48752;51.056;17.056;2023-06-14T04:33:56;9.05;;;6.32;;
62687;SDS011;48752;51.056;17.056;2023-06-14T04:36:22;11.20;;;7.07;;
62687;SDS011;48752;51.056;17.056;2023-06-14T04:38:49;12.07;;;6.45;;
62687;SDS011;48752;51.056;17.056;2023-06-14T04:41:15;8.48;;;6.32;;
62687;SDS011;48752;51.056;17.056;2023-06-14T04:43:42;12.85;;;6.78;;
62687;SDS011;48752;51.056;17.056;2023-06-14T04:46:09;10.20;;;6.38;;
62687;SDS011;48752;51.056;17.056;2023-06-14T04:48:40;11.93;;;7.45;;
62687;SDS011;48752;51.056;17.056;2023-06-14T04:51:08;11.70;;;6.65;;
62687;SDS011;48752;51.056;17.056;2023-06-14T04:53:35;9.73;;;6.85;;
62687;SDS011;48752;51.056;17.056;2023-06-14T04:56:04;12.70;;;7.25;;
62687;SDS011;48752;51.056;17.056;2023-06-14T04:58:29;8.85;;;7.00;;
62687;SDS011;48752;51.056;17.056;2023-06-14T05:00:55;10.82;;;6.55;;
62687;SDS011;48752;51.056;17.056;2023-06-14T05:03:25;11.38;;;6.78;;
62687;SDS011;48752;51.056;17.056;2023-06-14T05:05:56;9.65;;;7.22;;
62687;SDS011;48752;51.056;17.056;2023-06-14T05:08:22;11.02;;;6.75;;
62687;SDS011;48752;51.056;17.056;2023-06-14T05:10:49;13.52;;;7.55;;
62687;SDS011;48752;51.056;17.056;2023-06-14T05:13:23;14.40;;;6.57;;
62687;SDS011;48752;51.056;17.056;2023-06-14T05:15:50;10.68;;;6.97;;
62687;SDS011;48752;51.056;17.056;2023-06-14T05:18:16;10.43;;;6.90;;
62687;SDS011;48752;51.056;17.056;2023-06-14T05:20:42;12.00;;;6.85;;
62687;SDS011;48752;51.056;17.056;2023-06-14T05:23:11;10.23;;;7.85;;
62687;SDS011;48752;51.056;17.056;2023-06-14T05:25:45;10.93;;;7.55;;
62687;SDS011;48752;51.056;17.056;2023-06-14T05:28:11;9.60;;;7.38;;
62687;SDS011;48752;51.056;17.056;2023-06-14T05:30:38;10.30;;;7.43;;
62687;SDS011;48752;51.056;17.056;2023-06-14T05:33:04;11.98;;;8.18;;
62687;SDS011;48752;51.056;17.056;2023-06-14T05:35:30;11.18;;;8.68;;
62687;SDS011;48752;51.056;17.056;2023-06-14T05:37:56;10.10;;;8.35;;
62687;SDS011;48752;51.056;17.056;2023-06-14T05:40:21;13.97;;;8.60;;
62687;SDS011;48752;51.056;17.056;2023-06-14T05:42:48;13.18;;;7.72;;
62687;SDS011;48752;51.056;17.056;2023-06-14T05:45:13;10.77;;;7.63;;
62687;SDS011;48752;51.056;17.056;2023-06-14T05:47:41;16.98;;;9.32;;
62687;SDS011;48752;51.056;17.056;2023-06-14T05:50:06;12.43;;;8.98;;
62687;SDS011;48752;51.056;17.056;2023-06-14T05:52:32;12.23;;;9.30;;
62687;SDS011;48752;51.056;17.056;2023-06-14T05:54:57;14.70;;;9.30;;
62687;SDS011;48752;51.056;17.056;2023-06-14T05:57:28;13.02;;;8.52;;
62687;SDS011;48752;51.056;17.056;2023-06-14T05:59:54;16.50;;;9.40;;
62687;SDS011;48752;51.056;17.056;2023-06-14T06:02:19;19.35;;;10.48;;
62687;SDS011;48752;51.056;17.056;2023-06-14T06:04:44;19.38;;;9.70;;
62687;SDS011;48752;51.056;17.056;2023-06-14T06:07:10;14.37;;;9.27;;
62687;SDS011;48752;51.056;17.056;2023-06-14T06:09:36;14.90;;;9.07;;
62687;SDS011;48752;51.056;17.056;2023-06-14T06:12:01;12.18;;;8.93;;
62687;SDS011;48752;51.056;17.056;2023-06-14T06:14:27;13.85;;;8.80;;
62687;SDS011;48752;51.056;17.056;2023-06-14T06:16:53;11.82;;;8.48;;
62687;SDS011;48752;51.056;17.056;2023-06-14T06:19:31;9.90;;;7.95;;
62687;SDS011;48752;51.056;17.056;2023-06-14T06:21:56;13.55;;;8.18;;
62687;SDS011;48752;51.056;17.056;2023-06-14T06:24:23;12.85;;;8.82;;
62687;SDS011;48752;51.056;17.056;2023-06-14T06:26:49;10.53;;;8.03;;
62687;SDS011;48752;51.056;17.056;2023-06-14T06:29:15;15.00;;;8.90;;
62687;SDS011;48752;51.056;17.056;2023-06-14T06:31:41;14.77;;;9.05;;
62687;SDS011;48752;51.056;17.056;2023-06-14T06:34:06;15.43;;;10.18;;
62687;SDS011;48752;51.056;17.056;2023-06-14T06:36:33;13.57;;;9.40;;
62687;SDS011;48752;51.056;17.056;2023-06-14T06:38:59;17.15;;;10.02;;
62687;SDS011;48752;51.056;17.056;2023-06-14T06:41:27;15.88;;;9.52;;
62687;SDS011;48752;51.056;17.056;2023-06-14T06:43:53;13.38;;;10.05;;
62687;SDS011;48752;51.056;17.056;2023-06-14T06:46:19;18.40;;;10.13;;
62687;SDS011;48752;51.056;17.056;2023-06-14T06:48:44;14.90;;;9.60;;
62687;SDS011;48752;51.056;17.056;2023-06-14T06:51:11;15.80;;;10.95;;
62687;SDS011;48752;51.056;17.056;2023-06-14T06:53:41;14.30;;;10.07;;
62687;SDS011;48752;51.056;17.056;2023-06-14T06:56:15;13.30;;;9.73;;
62687;SDS011;48752;51.056;17.056;2023-06-14T06:58:52;13.50;;;8.82;;
62687;SDS011;48752;51.056;17.056;2023-06-14T07:01:20;13.68;;;9.77;;
62687;SDS011;48752;51.056;17.056;2023-06-14T07:03:46;14.73;;;10.38;;
62687;SDS011;48752;51.056;17.056;2023-06-14T07:06:12;11.57;;;9.05;;
62687;SDS011;48752;51.056;17.056;2023-06-14T07:08:38;16.48;;;10.35;;
62687;SDS011;48752;51.056;17.056;2023-06-14T07:11:05;14.00;;;10.00;;
62687;SDS011;48752;51.056;17.056;2023-06-14T07:13:31;12.30;;;9.85;;
62687;SDS011;48752;51.056;17.056;2023-06-14T07:15:57;16.45;;;10.25;;
62687;SDS011;48752;51.056;17.056;2023-06-14T07:18:23;13.52;;;10.15;;
62687;SDS011;48752;51.056;17.056;2023-06-14T07:20:49;14.15;;;10.27;;
62687;SDS011;48752;51.056;17.056;2023-06-14T07:23:16;13.52;;;10.15;;
62687;SDS011;48752;51.056;17.056;2023-06-14T07:25:43;12.55;;;10.35;;
62687;SDS011;48752;51.056;17.056;2023-06-14T07:28:08;11.35;;;10.05;;
62687;SDS011;48752;51.056;17.056;2023-06-14T07:30:35;17.13;;;9.40;;
62687;SDS011;48752;51.056;17.056;2023-06-14T07:33:01;11.80;;;8.63;;
62687;SDS011;48752;51.056;17.056;2023-06-14T07:35:26;11.37;;;10.10;;
62687;SDS011;48752;51.056;17.056;2023-06-14T07:37:52;12.43;;;9.53;;
62687;SDS011;48752;51.056;17.056;2023-06-14T07:40:18;12.02;;;10.38;;
62687;SDS011;48752;51.056;17.056;2023-06-14T07:42:43;11.17;;;8.73;;
62687;SDS011;48752;51.056;17.056;2023-06-14T07:45:08;10.83;;;9.43;;
62687;SDS011;48752;51.056;17.056;2023-06-14T07:47:34;10.98;;;9.40;;
62687;SDS011;48752;51.056;17.056;2023-06-14T07:49:59;13.10;;;9.88;;
62687;SDS011;48752;51.056;17.056;2023-06-14T07:52:25;13.85;;;9.32;;
62687;SDS011;48752;51.056;17.056;2023-06-14T07:55:03;11.05;;;9.00;;
62687;SDS011;48752;51.056;17.056;2023-06-14T07:57:28;10.88;;;9.63;;
62687;SDS011;48752;51.056;17.056;2023-06-14T07:59:54;12.77;;;9.70;;
62687;SDS011;48752;51.056;17.056;2023-06-14T08:02:19;12.57;;;9.33;;
62687;SDS011;48752;51.056;17.056;2023-06-14T08:04:46;10.10;;;8.25;;
62687;SDS011;48752;51.056;17.056;2023-06-14T08:07:14;10.90;;;8.43;;
62687;SDS011;48752;51.056;17.056;2023-06-14T08:09:40;10.65;;;8.85;;
62687;SDS011;48752;51.056;17.056;2023-06-14T08:12:07;11.05;;;8.65;;
62687;SDS011;48752;51.056;17.056;2023-06-14T08:14:42;11.13;;;8.20;;
62687;SDS011;48752;51.056;17.056;2023-06-14T08:17:08;11.80;;;8.82;;
62687;SDS011;48752;51.056;17.056;2023-06-14T08:19:33;11.88;;;7.78;;
62687;SDS011;48752;51.056;17.056;2023-06-14T08:22:00;9.97;;;8.00;;
62687;SDS011;48752;51.056;17.056;2023-06-14T08:24:26;13.82;;;8.40;;
62687;SDS011;48752;51.056;17.056;2023-06-14T08:26:54;11.55;;;8.75;;
62687;SDS011;48752;51.056;17.056;2023-06-14T08:29:20;10.00;;;8.33;;
62687;SDS011;48752;51.056;17.056;2023-06-14T08:31:46;10.57;;;8.20;;
62687;SDS011;48752;51.056;17.056;2023-06-14T08:34:12;9.90;;;7.55;;
62687;SDS011;48752;51.056;17.056;2023-06-14T08:36:38;8.90;;;7.45;;
62687;SDS011;48752;51.056;17.056;2023-06-14T08:39:04;9.77;;;7.80;;
62687;SDS011;48752;51.056;17.056;2023-06-14T08:41:30;9.40;;;8.02;;
62687;SDS011;48752;51.056;17.056;2023-06-14T08:43:57;10.82;;;8.23;;
62687;SDS011;48752;51.056;17.056;2023-06-14T08:46:25;12.40;;;8.25;;
62687;SDS011;48752;51.056;17.056;2023-06-14T08:48:54;10.60;;;8.40;;
62687;SDS011;48752;51.056;17.056;2023-06-14T08:51:22;11.20;;;7.63;;
62687;SDS011;48752;51.056;17.056;2023-06-14T08:53:55;9.48;;;7.60;;
62687;SDS011;48752;51.056;17.056;2023-06-14T08:56:26;10.82;;;7.60;;
62687;SDS011;48752;51.056;17.056;2023-06-14T08:58:53;8.43;;;7.07;;
62687;SDS011;48752;51.056;17.056;2023-06-14T09:01:19;8.68;;;7.55;;
62687;SDS011;48752;51.056;17.056;2023-06-14T09:03:47;8.98;;;6.93;;
62687;SDS011;48752;51.056;17.056;2023-06-14T09:06:14;11.05;;;7.70;;
62687;SDS011;48752;51.056;17.056;2023-06-14T09:08:43;11.00;;;9.10;;
62687;SDS011;48752;51.056;17.056;2023-06-14T09:11:12;10.23;;;8.13;;
62687;SDS011;48752;51.056;17.056;2023-06-14T09:13:38;10.50;;;8.10;;
62687;SDS011;48752;51.056;17.056;2023-06-14T09:16:04;10.32;;;7.57;;
62687;SDS011;48752;51.056;17.056;2023-06-14T09:18:42;8.90;;;7.07;;
62687;SDS011;48752;51.056;17.056;2023-06-14T09:21:09;8.63;;;6.88;;
62687;SDS011;48752;51.056;17.056;2023-06-14T09:26:09;12.88;;;7.53;;
62687;SDS011;48752;51.056;17.056;2023-06-14T09:28:46;11.32;;;7.50;;
62687;SDS011;48752;51.056;17.056;2023-06-14T09:31:15;12.80;;;8.00;;
62687;SDS011;48752;51.056;17.056;2023-06-14T09:33:46;10.85;;;7.72;;
62687;SDS011;48752;51.056;17.056;2023-06-14T09:36:15;12.30;;;8.27;;
62687;SDS011;48752;51.056;17.056;2023-06-14T09:38:55;11.32;;;7.55;;
62687;SDS011;48752;51.056;17.056;2023-06-14T09:41:20;9.02;;;7.47;;
62687;SDS011;48752;51.056;17.056;2023-06-14T09:43:46;11.30;;;7.55;;
62687;SDS011;48752;51.056;17.056;2023-06-14T09:46:12;12.23;;;8.55;;
62687;SDS011;48752;51.056;17.056;2023-06-14T09:48:39;14.77;;;8.13;;
62687;SDS011;48752;51.056;17.056;2023-06-14T09:51:11;11.75;;;8.10;;
62687;SDS011;48752;51.056;17.056;2023-06-14T09:53:39;7.97;;;6.20;;
62687;SDS011;48752;51.056;17.056;2023-06-14T09:56:16;8.05;;;5.80;;
62687;SDS011;48752;51.056;17.056;2023-06-14T09:58:56;11.70;;;5.03;;
62687;SDS011;48752;51.056;17.056;2023-06-14T10:01:30;7.15;;;4.70;;
62687;SDS011;48752;51.056;17.056;2023-06-14T10:04:06;7.30;;;4.75;;
62687;SDS011;48752;51.056;17.056;2023-06-14T10:06:31;9.07;;;5.40;;
62687;SDS011;48752;51.056;17.056;2023-06-14T10:08:59;9.45;;;4.93;;
62687;SDS011;48752;51.056;17.056;2023-06-14T10:11:26;12.60;;;4.35;;
62687;SDS011;48752;51.056;17.056;2023-06-14T10:14:00;4.65;;;3.72;;
62687;SDS011;48752;51.056;17.056;2023-06-14T10:16:39;9.15;;;4.57;;
62687;SDS011;48752;51.056;17.056;2023-06-14T10:19:16;7.55;;;3.90;;
62687;SDS011;48752;51.056;17.056;2023-06-14T10:24:08;6.88;;;3.83;;
62687;SDS011;48752;51.056;17.056;2023-06-14T10:26:39;9.05;;;4.78;;
62687;SDS011;48752;51.056;17.056;2023-06-14T10:29:14;8.35;;;4.05;;
62687;SDS011;48752;51.056;17.056;2023-06-14T10:31:41;6.63;;;3.83;;
62687;SDS011;48752;51.056;17.056;2023-06-14T10:34:07;9.02;;;4.45;;
62687;SDS011;48752;51.056;17.056;2023-06-14T10:36:32;11.60;;;3.97;;
62687;SDS011;48752;51.056;17.056;2023-06-14T10:41:28;7.65;;;4.13;;
62687;SDS011;48752;51.056;17.056;2023-06-14T10:46:37;4.78;;;3.85;;
62687;SDS011;48752;51.056;17.056;2023-06-14T10:49:03;7.05;;;4.60;;
62687;SDS011;48752;51.056;17.056;2023-06-14T10:51:38;7.85;;;3.90;;
62687;SDS011;48752;51.056;17.056;2023-06-14T10:54:11;7.15;;;4.03;;
62687;SDS011;48752;51.056;17.056;2023-06-14T10:56:38;4.75;;;3.80;;
62687;SDS011;48752;51.056;17.056;2023-06-14T10:59:10;4.28;;;3.42;;
62687;SDS011;48752;51.056;17.056;2023-06-14T11:01:36;5.43;;;4.17;;
62687;SDS011;48752;51.056;17.056;2023-06-14T11:04:08;4.78;;;4.10;;
62687;SDS011;48752;51.056;17.056;2023-06-14T11:06:47;9.73;;;3.95;;
62687;SDS011;48752;51.056;17.056;2023-06-14T11:11:59;5.70;;;4.15;;
62687;SDS011;48752;51.056;17.056;2023-06-14T11:14:25;8.65;;;4.15;;
62687;SDS011;48752;51.056;17.056;2023-06-14T11:16:50;8.57;;;4.43;;
62687;SDS011;48752;51.056;17.056;2023-06-14T11:19:15;4.53;;;4.10;;
62687;SDS011;48752;51.056;17.056;2023-06-14T11:21:42;4.15;;;3.60;;
62687;SDS011;48752;51.056;17.056;2023-06-14T11:24:10;6.68;;;4.00;;
62687;SDS011;48752;51.056;17.056;2023-06-14T11:26:37;4.82;;;3.92;;
62687;SDS011;48752;51.056;17.056;2023-06-14T11:29:02;5.82;;;4.25;;
62687;SDS011;48752;51.056;17.056;2023-06-14T11:31:27;10.68;;;4.38;;
62687;SDS011;48752;51.056;17.056;2023-06-14T11:33:56;7.25;;;3.83;;
62687;SDS011;48752;51.056;17.056;2023-06-14T11:36:22;7.70;;;5.25;;
62687;SDS011;48752;51.056;17.056;2023-06-14T11:38:48;7.10;;;4.10;;
62687;SDS011;48752;51.056;17.056;2023-06-14T11:41:13;7.50;;;3.58;;
62687;SDS011;48752;51.056;17.056;2023-06-14T11:43:39;6.90;;;4.17;;
62687;SDS011;48752;51.056;17.056;2023-06-14T11:46:11;4.05;;;3.30;;
62687;SDS011;48752;51.056;17.056;2023-06-14T11:48:37;4.03;;;3.40;;
62687;SDS011;48752;51.056;17.056;2023-06-14T11:51:03;5.57;;;3.85;;
62687;SDS011;48752;51.056;17.056;2023-06-14T11:53:29;4.47;;;3.28;;
62687;SDS011;48752;51.056;17.056;2023-06-14T11:55:54;4.57;;;3.50;;
62687;SDS011;48752;51.056;17.056;2023-06-14T11:58:19;8.23;;;3.85;;
62687;SDS011;48752;51.056;17.056;2023-06-14T12:00:45;4.75;;;3.72;;
62687;SDS011;48752;51.056;17.056;2023-06-14T12:03:13;8.73;;;3.53;;
62687;SDS011;48752;51.056;17.056;2023-06-14T12:05:39;5.70;;;3.67;;
62687;SDS011;48752;51.056;17.056;2023-06-14T12:08:04;5.17;;;3.70;;
62687;SDS011;48752;51.056;17.056;2023-06-14T12:10:39;5.53;;;3.63;;
62687;SDS011;48752;51.056;17.056;2023-06-14T12:13:04;6.43;;;3.78;;
62687;SDS011;48752;51.056;17.056;2023-06-14T12:15:31;10.23;;;3.83;;
62687;SDS011;48752;51.056;17.056;2023-06-14T12:17:57;7.40;;;3.38;;
62687;SDS011;48752;51.056;17.056;2023-06-14T12:20:22;6.78;;;3.50;;
62687;SDS011;48752;51.056;17.056;2023-06-14T12:22:55;5.10;;;3.45;;
62687;SDS011;48752;51.056;17.056;2023-06-14T12:25:24;11.57;;;3.80;;
62687;SDS011;48752;51.056;17.056;2023-06-14T12:27:52;8.18;;;3.58;;
62687;SDS011;48752;51.056;17.056;2023-06-14T12:30:17;8.02;;;4.05;;
62687;SDS011;48752;51.056;17.056;2023-06-14T12:32:42;6.33;;;3.23;;
62687;SDS011;48752;51.056;17.056;2023-06-14T12:35:09;8.55;;;3.60;;
62687;SDS011;48752;51.056;17.056;2023-06-14T12:37:34;3.63;;;3.33;;
62687;SDS011;48752;51.056;17.056;2023-06-14T12:39:59;5.88;;;3.58;;
62687;SDS011;48752;51.056;17.056;2023-06-14T12:42:25;4.55;;;3.20;;
62687;SDS011;48752;51.056;17.056;2023-06-14T12:44:50;5.18;;;4.00;;
62687;SDS011;48752;51.056;17.056;2023-06-14T12:47:16;6.47;;;3.37;;
62687;SDS011;48752;51.056;17.056;2023-06-14T12:49:41;6.80;;;3.55;;
62687;SDS011;48752;51.056;17.056;2023-06-14T12:52:07;5.78;;;3.72;;
62687;SDS011;48752;51.056;17.056;2023-06-14T12:54:32;6.43;;;3.78;;
62687;SDS011;48752;51.056;17.056;2023-06-14T12:56:57;4.60;;;3.50;;
62687;SDS011;48752;51.056;17.056;2023-06-14T12:59:23;8.20;;;3.88;;
62687;SDS011;48752;51.056;17.056;2023-06-14T13:01:48;6.25;;;3.45;;
62687;SDS011;48752;51.056;17.056;2023-06-14T13:04:15;5.20;;;3.63;;
62687;SDS011;48752;51.056;17.056;2023-06-14T13:06:40;8.38;;;3.17;;
62687;SDS011;48752;51.056;17.056;2023-06-14T13:09:05;4.73;;;3.73;;
62687;SDS011;48752;51.056;17.056;2023-06-14T13:11:31;4.60;;;3.17;;
62687;SDS011;48752;51.056;17.056;2023-06-14T13:13:56;5.43;;;3.30;;
62687;SDS011;48752;51.056;17.056;2023-06-14T13:16:21;9.15;;;3.58;;
62687;SDS011;48752;51.056;17.056;2023-06-14T13:18:47;7.83;;;3.90;;
62687;SDS011;48752;51.056;17.056;2023-06-14T13:21:12;5.53;;;3.73;;
62687;SDS011;48752;51.056;17.056;2023-06-14T13:23:37;7.40;;;4.03;;
62687;SDS011;48752;51.056;17.056;2023-06-14T13:26:02;5.57;;;3.90;;
62687;SDS011;48752;51.056;17.056;2023-06-14T13:28:28;5.10;;;3.27;;
62687;SDS011;48752;51.056;17.056;2023-06-14T13:30:53;7.78;;;3.97;;
62687;SDS011;48752;51.056;17.056;2023-06-14T13:33:20;6.70;;;3.90;;
62687;SDS011;48752;51.056;17.056;2023-06-14T13:35:46;8.02;;;4.38;;
62687;SDS011;48752;51.056;17.056;2023-06-14T13:38:11;5.93;;;3.80;;
62687;SDS011;48752;51.056;17.056;2023-06-14T13:40:37;5.70;;;4.13;;
62687;SDS011;48752;51.056;17.056;2023-06-14T13:43:04;9.43;;;4.78;;
62687;SDS011;48752;51.056;17.056;2023-06-14T13:45:30;4.85;;;3.72;;
62687;SDS011;48752;51.056;17.056;2023-06-14T13:47:56;7.05;;;4.18;;
62687;SDS011;48752;51.056;17.056;2023-06-14T13:50:23;5.70;;;4.00;;
62687;SDS011;48752;51.056;17.056;2023-06-14T13:52:49;5.85;;;3.65;;
62687;SDS011;48752;51.056;17.056;2023-06-14T13:55:14;5.82;;;3.75;;
62687;SDS011;48752;51.056;17.056;2023-06-14T13:57:40;7.20;;;3.83;;
62687;SDS011;48752;51.056;17.056;2023-06-14T14:00:06;6.88;;;4.10;;
62687;SDS011;48752;51.056;17.056;2023-06-14T14:02:32;6.18;;;4.10;;
62687;SDS011;48752;51.056;17.056;2023-06-14T14:04:58;7.45;;;4.22;;
62687;SDS011;48752;51.056;17.056;2023-06-14T14:07:23;6.27;;;3.83;;
62687;SDS011;48752;51.056;17.056;2023-06-14T14:09:54;7.32;;;4.00;;
62687;SDS011;48752;51.056;17.056;2023-06-14T14:12:24;4.28;;;3.88;;
62687;SDS011;48752;51.056;17.056;2023-06-14T14:14:51;7.70;;;4.43;;
62687;SDS011;48752;51.056;17.056;2023-06-14T14:17:17;7.47;;;4.30;;
62687;SDS011;48752;51.056;17.056;2023-06-14T14:19:44;6.20;;;4.20;;
62687;SDS011;48752;51.056;17.056;2023-06-14T14:22:10;6.32;;;4.40;;
62687;SDS011;48752;51.056;17.056;2023-06-14T14:24:35;6.53;;;4.03;;
62687;SDS011;48752;51.056;17.056;2023-06-14T14:27:02;4.47;;;3.33;;
62687;SDS011;48752;51.056;17.056;2023-06-14T14:29:29;5.78;;;3.38;;
62687;SDS011;48752;51.056;17.056;2023-06-14T14:31:56;3.90;;;2.80;;
62687;SDS011;48752;51.056;17.056;2023-06-14T14:34:24;8.27;;;3.20;;
62687;SDS011;48752;51.056;17.056;2023-06-14T14:36:49;5.75;;;3.10;;
62687;SDS011;48752;51.056;17.056;2023-06-14T14:39:16;4.70;;;2.80;;
62687;SDS011;48752;51.056;17.056;2023-06-14T14:41:41;5.40;;;3.30;;
62687;SDS011;48752;51.056;17.056;2023-06-14T14:44:08;3.70;;;3.00;;
62687;SDS011;48752;51.056;17.056;2023-06-14T14:46:34;5.35;;;3.80;;
62687;SDS011;48752;51.056;17.056;2023-06-14T14:48:59;3.53;;;3.20;;